Share

Danville, KY (40422)

Berwick Drive (KKYDANVI2) Elev 980 ft | 37.66 °N, 84.79 °W | Change Station

Current weather conditions updated 3 minutes ago

Clear
Clear
44.9 °F
Feels Like 45 °F
N
0.0
Wind Variable Wind from West
Gusts 0.0 mph
Sunrise 6:58 AM
Sunset 8:18 PM
Moon Waning Gibbous

Today is forecast to be nearly the same temperature as yesterday.

Pressure 30.22 in
Visibility 10.0 miles
Clouds Clear
Windchill 45 °F
Dew Point 38 °F
Humidity 78%
Rainfall 0.00 in
Snow Depth Not available.
UV 0 out of 16
Pollen 10.40 out of 12
Air Quality Not available.
Flu Activity Sporadic
METAR KDVK 191035Z AUTO 01003KT 10SM CLR 08/03 A3022 RMK AO2

More Conditions Fewer Conditions

Pressure 30.22 in
Visibility 10.0 miles
Clouds Clear
Windchill 45 °F
Dew Point 38 °F
Humidity 78%
Rainfall 0.00 in
Snow Depth Not available.
UV 0 out of 16
Pollen 10.40 out of 12
Air Quality Not available.
Flu Activity Sporadic
METAR KDVK 191035Z AUTO 01003KT 10SM CLR 08/03 A3022 RMK AO2

More Conditions Fewer Conditions

10-Day Weather Forecast

Almanac

Astronomy

Apr. 19, 2014 Rise Set
Actual Time 6:58 AM EDT 8:18 PM EDT
Civil Twilight 6:31 AM EDT 8:45 PM EDT
Nautical Twilight 5:58 AM EDT 9:18 PM EDT
Astronomical Twilight 5:24 AM EDT 9:52 PM EDT
Moon No Moon Rise 10:18 AM EDT
Length of Visible Light 14h 14m
Length of Day
13h 19m
Tomorrow will be 2m 15s longer.
Waning Gibbous, 81% of the Moon is Illuminated
Today
Waning Gibbous
Apr 22
Last Quarter
Apr 29
New
May 6
First Quarter
May 14
Full

Today's Extremes

State Highs State Lows

Community

  • Bleeding Hearts
    Bleeding Hearts
  • Sunset Silhouettes
    Sunset Silhouettes
  • FL sunset Perico Isle
    FL sunset Perico Isle
  • Cloudy spring view
    Cloudy spring view
  • Old barn
    Old barn

WunderPhotos

Upload Photos

1,702,681 photos uploaded!

WunderBlogs® & News

Nearby

Snow Depth

Station Depth Elevation
No new snow has been reported.

Coastal Water Temperatures

Place Temperature
No Stations Reporting

Earthquake Activity

City Distance Mag. Time & Date
No recent earthquake activity has been reported nearby.
Minimum magnitude displayed is 2.5.

Nearby Weather Stations

Station Location Temp. Windchill Dew Point Humidity Wind Precip. Elev Updated Type
Berwick Drive, Danville, KY 44.9 °F 45 °F 38 °F 78% West  at  0.0 mph 0.00 in / hr 980 ft 6:50 AM EDT Normal
Perryville, KY, Danville, KY 41.0 °F 41 °F 41 °F 99% East  at  0.0 mph 0.00 in / hr 915 ft 6:51 AM EDT Normal
Rocky Fork, Lancaster, KY 48.4 °F 48 °F 37 °F 64% NNE  at  0.0 mph 0.00 in / hr 804 ft 6:53 AM EDT Rapid Fire
K. Bracketts Weather Station 39 N, Crab Orchard, KY 45.9 °F 46 °F 45 °F 97% NE  at  0.0 mph 0.00 in / hr 952 ft 6:53 AM EDT Rapid Fire

Show More Stations Show Fewer Stations

What do you think?

We're not finished. Please let us know what you like, what you don't like, and what you are still missing.